createdAt,value
2019-02-16T00:01:04.196Z,14.43
2019-02-16T00:03:31.277Z,17.77
2019-02-16T00:05:58.324Z,13.50
2019-02-16T00:08:25.456Z,11.07
2019-02-16T00:10:52.512Z,13.63
2019-02-16T00:13:19.608Z,10.43
2019-02-16T00:16:05.267Z,11.90
2019-02-16T00:18:32.433Z,19.13
2019-02-16T00:21:04.070Z,20.80
2019-02-16T00:23:29.697Z,19.27
2019-02-16T00:25:56.792Z,10.40
2019-02-16T00:28:23.865Z,8.43
2019-02-16T00:30:50.983Z,11.00
2019-02-16T00:33:18.034Z,8.53
2019-02-16T00:35:45.085Z,8.73
2019-02-16T00:38:12.190Z,9.23
2019-02-16T00:40:39.329Z,10.17
2019-02-16T00:43:07.530Z,11.97
2019-02-16T00:45:34.749Z,11.10
2019-02-16T00:48:01.948Z,11.67
2019-02-16T00:50:29.040Z,13.87
2019-02-16T00:52:56.146Z,10.10
2019-02-16T00:55:23.215Z,11.60
2019-02-16T00:57:50.391Z,9.33
2019-02-16T01:00:17.486Z,12.97
2019-02-16T01:02:44.565Z,13.17
2019-02-16T01:06:07.515Z,14.43
2019-02-16T01:08:35.701Z,8.73
2019-02-16T01:11:02.903Z,11.57
2019-02-16T01:13:30.182Z,10.10
2019-02-16T01:15:57.246Z,11.00
2019-02-16T01:18:24.319Z,9.00
2019-02-16T01:20:51.438Z,10.77
2019-02-16T01:23:18.638Z,9.63
2019-02-16T01:25:45.820Z,11.33
2019-02-16T01:28:12.934Z,10.07
2019-02-16T01:30:40.174Z,8.17
2019-02-16T01:33:07.240Z,16.60
2019-02-16T01:35:34.448Z,12.03
2019-02-16T01:38:01.592Z,12.50
2019-02-16T01:40:28.822Z,11.50
2019-02-16T01:42:55.977Z,19.93
2019-02-16T01:45:23.074Z,14.60
2019-02-16T01:47:50.131Z,10.07
2019-02-16T01:50:17.320Z,13.57
2019-02-16T01:52:44.390Z,16.37
2019-02-16T01:55:12.505Z,11.13
2019-02-16T01:57:39.586Z,16.90
2019-02-16T02:00:08.268Z,11.27
2019-02-16T02:02:35.542Z,13.97
2019-02-16T02:05:03.827Z,13.57
2019-02-16T02:07:30.905Z,14.43
2019-02-16T02:09:58.064Z,12.63
2019-02-16T02:12:25.458Z,11.73
2019-02-16T02:14:52.556Z,10.30
2019-02-16T02:17:19.760Z,13.03
2019-02-16T02:19:46.851Z,16.97
2019-02-16T02:22:13.931Z,10.93
2019-02-16T02:24:41.057Z,13.57
2019-02-16T02:27:08.235Z,13.43
2019-02-16T02:29:35.318Z,11.37
2019-02-16T02:32:02.549Z,8.43
2019-02-16T02:34:29.633Z,10.10
2019-02-16T02:36:56.746Z,13.93
2019-02-16T02:39:24.264Z,10.97
2019-02-16T02:41:53.781Z,10.90
2019-02-16T02:44:20.854Z,12.83
2019-02-16T02:47:08.881Z,11.30
2019-02-16T02:49:35.994Z,10.13
2019-02-16T02:52:03.059Z,9.93
2019-02-16T02:54:30.182Z,9.00
2019-02-16T02:56:57.275Z,12.43
2019-02-16T02:59:24.360Z,10.00
2019-02-16T03:02:46.870Z,10.47
2019-02-16T03:05:13.971Z,12.87
2019-02-16T03:07:41.043Z,10.33
2019-02-16T03:10:08.313Z,10.60
2019-02-16T03:12:37.406Z,9.73
2019-02-16T03:15:04.851Z,11.03
2019-02-16T03:17:32.002Z,13.50
2019-02-16T03:19:59.096Z,12.33
2019-02-16T03:26:10.660Z,11.10
2019-02-16T03:28:42.166Z,13.77
2019-02-16T03:31:53.570Z,12.50
2019-02-16T03:34:25.308Z,18.43
2019-02-16T03:37:46.447Z,13.70
2019-02-16T03:40:13.939Z,9.60
2019-02-16T03:42:41.027Z,10.63
2019-02-16T03:45:08.294Z,12.87
2019-02-16T03:47:35.416Z,14.27
2019-02-16T03:50:04.686Z,13.70
2019-02-16T03:52:31.766Z,11.63
2019-02-16T03:54:58.869Z,11.37
2019-02-16T03:57:26.131Z,9.27
2019-02-16T03:59:53.292Z,15.27
2019-02-16T04:02:20.381Z,12.27
2019-02-16T04:04:47.465Z,12.27
2019-02-16T04:07:14.602Z,16.63
2019-02-16T04:09:41.707Z,12.87
2019-02-16T04:12:08.797Z,14.23
2019-02-16T04:14:35.920Z,14.43
2019-02-16T04:17:03.528Z,17.00
2019-02-16T04:20:35.138Z,19.83
2019-02-16T04:23:02.371Z,10.87
2019-02-16T04:25:29.436Z,15.37
2019-02-16T04:27:56.492Z,17.53
2019-02-16T04:30:23.577Z,9.80
2019-02-16T04:32:50.680Z,15.97
2019-02-16T04:35:54.165Z,12.47
2019-02-16T04:38:21.375Z,16.67
2019-02-16T04:40:48.443Z,12.00
2019-02-16T04:43:15.524Z,17.63
2019-02-16T04:45:42.717Z,16.17
2019-02-16T04:48:09.759Z,19.77
2019-02-16T04:50:36.879Z,18.27
2019-02-16T04:53:04.379Z,18.33
2019-02-16T04:55:31.522Z,13.23
2019-02-16T04:57:58.575Z,17.20
2019-02-16T05:00:25.649Z,13.33
2019-02-16T05:02:52.698Z,12.90
2019-02-16T05:05:19.782Z,12.13
2019-02-16T05:07:52.999Z,13.03
2019-02-16T05:10:21.870Z,13.30
2019-02-16T05:12:48.959Z,14.37
2019-02-16T05:15:16.000Z,15.47
2019-02-16T05:17:43.080Z,18.70
2019-02-16T05:20:10.197Z,21.37
2019-02-16T05:22:44.386Z,14.63
2019-02-16T05:25:06.216Z,10.23
2019-02-16T05:27:33.305Z,16.70
2019-02-16T05:30:00.370Z,15.57
2019-02-16T05:32:27.417Z,13.00
2019-02-16T05:34:55.450Z,16.20
2019-02-16T05:37:22.619Z,13.77
2019-02-16T05:39:49.706Z,16.63
2019-02-16T05:42:16.805Z,13.50
2019-02-16T05:44:43.893Z,16.83
2019-02-16T05:47:10.942Z,17.40
2019-02-16T05:49:38.056Z,15.47
2019-02-16T05:52:05.105Z,21.00
2019-02-16T05:54:32.174Z,24.23
2019-02-16T05:56:59.276Z,15.83
2019-02-16T05:59:26.351Z,13.50
2019-02-16T06:01:54.358Z,15.90
2019-02-16T06:04:21.666Z,16.40
2019-02-16T06:06:48.774Z,14.33
2019-02-16T06:09:15.854Z,20.47
2019-02-16T06:11:44.270Z,23.00
2019-02-16T06:14:11.347Z,17.77
2019-02-16T06:16:38.399Z,21.80
2019-02-16T06:19:05.558Z,14.93
2019-02-16T06:21:32.840Z,18.00
2019-02-16T06:23:59.896Z,20.37
2019-02-16T06:26:26.963Z,14.13
2019-02-16T06:28:55.233Z,12.93
2019-02-16T06:31:22.312Z,14.07
2019-02-16T06:33:49.519Z,14.33
2019-02-16T06:36:37.628Z,17.07
2019-02-16T06:39:05.251Z,15.53
2019-02-16T06:41:32.371Z,17.03
2019-02-16T06:43:59.438Z,15.63
2019-02-16T06:46:26.597Z,19.70
2019-02-16T06:48:53.643Z,17.00
2019-02-16T06:51:22.023Z,23.23
2019-02-16T06:53:49.131Z,11.90
2019-02-16T06:56:48.091Z,15.10
2019-02-16T06:59:15.191Z,22.40
2019-02-16T07:01:42.252Z,15.70
2019-02-16T07:04:09.450Z,17.13
2019-02-16T07:06:36.594Z,20.50
2019-02-16T07:09:04.659Z,21.33
2019-02-16T07:11:31.720Z,17.07
2019-02-16T07:13:58.823Z,19.10
2019-02-16T07:16:57.785Z,20.27
2019-02-16T07:19:44.950Z,14.47
2019-02-16T07:22:12.011Z,17.77
2019-02-16T07:24:39.200Z,18.03
2019-02-16T07:27:06.270Z,20.83
2019-02-16T07:29:33.321Z,18.57
2019-02-16T07:32:00.362Z,21.40
2019-02-16T07:34:27.459Z,19.53
2019-02-16T07:37:33.595Z,16.03
2019-02-16T07:40:00.695Z,21.77
2019-02-16T07:42:29.889Z,15.30
2019-02-16T07:45:19.184Z,17.90
2019-02-16T07:48:04.056Z,20.40
2019-02-16T07:50:42.849Z,17.83
2019-02-16T07:53:21.608Z,15.83
2019-02-16T07:56:02.608Z,16.40
2019-02-16T07:58:52.076Z,20.43
2019-02-16T08:01:47.813Z,21.97
2019-02-16T08:04:34.437Z,24.33
2019-02-16T08:07:18.260Z,19.13
2019-02-16T08:10:07.727Z,13.90
2019-02-16T08:13:00.670Z,17.47
2019-02-16T08:15:58.472Z,15.40
2019-02-16T08:18:57.570Z,23.03
2019-02-16T08:21:53.360Z,19.00
2019-02-16T08:24:45.896Z,18.90
2019-02-16T08:27:36.787Z,20.17
2019-02-16T08:30:26.694Z,19.40
2019-02-16T08:33:06.679Z,18.07
2019-02-16T08:35:53.342Z,18.60
2019-02-16T08:38:46.244Z,21.10
2019-02-16T08:41:28.548Z,19.57
2019-02-16T08:44:15.288Z,22.27
2019-02-16T08:47:05.096Z,17.60
2019-02-16T08:49:44.711Z,21.80
2019-02-16T08:52:37.261Z,18.10
2019-02-16T08:55:23.024Z,15.80
2019-02-16T08:58:24.992Z,16.53
2019-02-16T09:01:27.548Z,14.83
2019-02-16T09:04:23.291Z,19.83
2019-02-16T09:07:09.952Z,13.93
2019-02-16T09:09:49.285Z,19.30
2019-02-16T09:12:38.675Z,17.67
2019-02-16T09:15:37.764Z,18.43
2019-02-16T09:18:18.427Z,16.93
2019-02-16T09:21:14.528Z,20.03
2019-02-16T09:23:58.835Z,18.80
2019-02-16T09:26:41.099Z,17.70
2019-02-16T09:29:19.675Z,14.70
2019-02-16T09:32:10.433Z,17.33
2019-02-16T09:35:09.015Z,22.83
2019-02-16T09:37:52.314Z,16.03
2019-02-16T09:40:39.059Z,17.23
2019-02-16T09:43:35.126Z,19.43
2019-02-16T09:46:20.496Z,21.27
2019-02-16T09:49:19.494Z,19.57
2019-02-16T09:52:06.564Z,23.20
2019-02-16T09:55:05.577Z,22.00
2019-02-16T09:57:58.120Z,19.37
2019-02-16T10:00:40.280Z,20.17
2019-02-16T10:03:13.099Z,19.83
2019-02-16T10:05:54.210Z,21.97
2019-02-16T10:08:39.734Z,19.80
2019-02-16T10:11:18.478Z,23.17
2019-02-16T10:14:03.962Z,26.10
2019-02-16T10:16:49.181Z,23.30
2019-02-16T10:19:48.034Z,28.70
2019-02-16T10:22:46.827Z,20.43
2019-02-16T10:25:39.366Z,24.90
2019-02-16T10:28:31.780Z,24.53
2019-02-16T10:31:07.871Z,30.53
2019-02-16T10:33:53.028Z,31.87
2019-02-16T10:36:51.904Z,25.40
2019-02-16T10:39:37.062Z,25.80
2019-02-16T10:42:29.910Z,34.80
2019-02-16T10:45:15.261Z,26.37
2019-02-16T10:48:20.341Z,32.13
2019-02-16T10:51:09.963Z,26.77
2019-02-16T10:53:44.150Z,27.33
2019-02-16T10:56:23.000Z,25.77
2019-02-16T10:59:09.829Z,25.00
2019-02-16T11:01:47.724Z,28.47
2019-02-16T11:04:38.182Z,36.13
2019-02-16T11:07:37.184Z,26.90
2019-02-16T11:10:24.337Z,26.30
2019-02-16T11:13:06.648Z,28.33
2019-02-16T11:15:53.210Z,25.90
2019-02-16T11:18:45.931Z,27.37
2019-02-16T11:21:38.067Z,32.70
2019-02-16T11:24:36.126Z,27.67
2019-02-16T11:27:28.264Z,23.30
2019-02-16T11:30:18.226Z,25.53
2019-02-16T11:32:54.204Z,27.70
2019-02-16T11:35:43.630Z,30.10
2019-02-16T11:38:33.061Z,23.60
2019-02-16T11:41:19.756Z,29.97
2019-02-16T11:44:15.615Z,25.13
2019-02-16T11:47:17.507Z,32.00
2019-02-16T11:50:02.302Z,31.53
2019-02-16T11:53:01.103Z,25.53
2019-02-16T11:55:42.861Z,30.50
2019-02-16T11:58:21.130Z,26.93
2019-02-16T12:00:56.211Z,28.33
2019-02-16T12:03:45.873Z,25.57
2019-02-16T12:06:32.726Z,30.70
2019-02-16T12:09:41.568Z,28.70
2019-02-16T12:12:19.024Z,28.60
2019-02-16T12:15:08.827Z,28.87
2019-02-16T12:18:04.474Z,28.13
2019-02-16T12:20:50.551Z,28.70
2019-02-16T12:23:27.099Z,27.20
2019-02-16T12:26:28.907Z,34.67
2019-02-16T12:29:16.820Z,32.43
2019-02-16T12:32:12.576Z,25.93
2019-02-16T12:34:57.763Z,35.77
2019-02-16T12:37:40.869Z,32.00
2019-02-16T12:40:26.027Z,29.57
2019-02-16T12:43:22.324Z,25.10
2019-02-16T12:46:06.076Z,25.70
2019-02-16T12:49:04.821Z,25.37
2019-02-16T12:51:50.062Z,24.93
2019-02-16T12:54:45.797Z,25.83
2019-02-16T12:57:31.180Z,25.07
2019-02-16T13:00:04.676Z,32.50
2019-02-16T13:02:49.945Z,28.93
2019-02-16T13:05:43.167Z,27.90
2019-02-16T13:08:32.620Z,30.73
2019-02-16T13:11:22.195Z,26.20
2019-02-16T13:14:02.757Z,28.87
2019-02-16T13:16:43.521Z,29.87
2019-02-16T13:19:19.426Z,33.33
2019-02-16T13:22:00.582Z,29.77
2019-02-16T13:24:45.282Z,26.67
2019-02-16T13:27:28.432Z,38.07
2019-02-16T13:30:24.324Z,30.03
2019-02-16T13:33:11.008Z,36.17
2019-02-16T13:35:48.206Z,26.50
2019-02-16T13:38:37.877Z,31.40
2019-02-16T13:41:17.231Z,28.43
2019-02-16T13:44:03.936Z,29.50
2019-02-16T13:46:37.095Z,31.23
2019-02-16T13:49:10.305Z,31.70
2019-02-16T13:51:56.979Z,27.13
2019-02-16T13:54:43.670Z,27.47
2019-02-16T13:57:42.383Z,29.53
2019-02-16T14:00:37.953Z,29.60
2019-02-16T14:03:27.604Z,28.00
2019-02-16T14:06:20.353Z,36.00
2019-02-16T14:09:06.276Z,27.90
2019-02-16T14:11:58.929Z,30.27
2019-02-16T14:14:44.501Z,38.33
2019-02-16T14:17:36.690Z,25.00
2019-02-16T14:20:04.360Z,26.80
2019-02-16T14:22:31.432Z,28.00
2019-02-16T14:25:00.404Z,28.57
2019-02-16T14:27:27.451Z,34.60
2019-02-16T14:29:54.556Z,30.27
2019-02-16T14:32:21.613Z,26.00
2019-02-16T14:34:48.713Z,29.13
2019-02-16T14:37:40.466Z,28.53
2019-02-16T14:40:07.762Z,28.40
2019-02-16T14:42:34.868Z,30.50
2019-02-16T14:45:02.012Z,28.13
2019-02-16T14:47:29.166Z,28.20
2019-02-16T14:49:56.217Z,29.67
2019-02-16T14:52:23.301Z,29.00
2019-02-16T14:54:50.415Z,31.97
2019-02-16T14:57:17.423Z,34.27
2019-02-16T14:59:44.518Z,23.50
2019-02-16T15:02:11.660Z,30.47
2019-02-16T15:04:38.790Z,28.00
2019-02-16T15:07:05.902Z,26.73
2019-02-16T15:09:34.003Z,26.43
2019-02-16T15:12:01.373Z,27.37
2019-02-16T15:14:28.494Z,28.90
2019-02-16T15:16:55.976Z,26.87
2019-02-16T15:19:23.067Z,35.47
2019-02-16T15:21:50.274Z,28.43
2019-02-16T15:24:17.348Z,27.60
2019-02-16T15:26:46.695Z,29.17
2019-02-16T15:29:13.967Z,32.63
2019-02-16T15:31:41.007Z,25.73
2019-02-16T15:34:08.072Z,30.00
2019-02-16T15:36:35.408Z,29.40
2019-02-16T15:39:04.335Z,31.60
2019-02-16T15:41:31.522Z,27.90
2019-02-16T15:43:58.621Z,29.73
2019-02-16T15:46:25.698Z,29.90
2019-02-16T15:48:52.892Z,32.90
2019-02-16T15:51:19.978Z,29.67
2019-02-16T15:53:47.559Z,32.40
2019-02-16T15:56:14.692Z,25.90
2019-02-16T15:58:41.962Z,31.30
2019-02-16T16:01:09.223Z,29.23
2019-02-16T16:03:36.299Z,30.43
2019-02-16T16:06:03.381Z,30.57
2019-02-16T16:08:59.469Z,25.97
2019-02-16T16:11:36.521Z,31.33
2019-02-16T16:14:19.166Z,29.30
2019-02-16T16:16:57.647Z,29.27
2019-02-16T16:19:44.414Z,31.20
2019-02-16T16:22:30.915Z,34.37
2019-02-16T16:25:17.631Z,29.77
2019-02-16T16:28:02.947Z,60.53
2019-02-16T16:30:55.723Z,43.53
2019-02-16T16:33:51.274Z,70.40
2019-02-16T16:36:37.948Z,44.67
2019-02-16T16:39:18.266Z,47.13
2019-02-16T16:42:04.943Z,38.37
2019-02-16T16:48:00.860Z,39.83
2019-02-16T16:50:46.467Z,34.77
2019-02-16T16:53:33.215Z,37.13
2019-02-16T16:56:11.708Z,27.53
2019-02-16T16:58:58.378Z,29.50
2019-02-16T17:01:42.811Z,31.67
2019-02-16T17:04:35.280Z,33.53
2019-02-16T17:07:30.760Z,32.37
2019-02-16T17:10:26.341Z,32.37
2019-02-16T17:13:08.442Z,39.70
2019-02-16T17:16:04.182Z,30.03
2019-02-16T17:18:46.700Z,31.63
2019-02-16T17:21:33.311Z,25.57
2019-02-16T17:24:17.130Z,29.83
2019-02-16T17:26:52.937Z,29.63
2019-02-16T17:29:39.661Z,28.33
2019-02-16T17:32:38.740Z,28.87
2019-02-16T17:35:23.895Z,36.90
2019-02-16T17:38:07.847Z,35.77
2019-02-16T17:41:00.613Z,32.40
2019-02-16T17:43:47.406Z,32.07
2019-02-16T17:46:35.916Z,38.37
2019-02-16T17:52:50.866Z,27.93
2019-02-16T17:55:37.022Z,34.13
2019-02-16T17:58:11.241Z,34.47
2019-02-16T18:00:56.929Z,40.23
2019-02-16T18:03:55.943Z,34.90
2019-02-16T18:13:13.748Z,34.33
2019-02-16T18:16:06.331Z,35.37
2019-02-16T18:18:54.827Z,36.07
2019-02-16T18:21:46.452Z,37.80
2019-02-16T18:24:31.908Z,42.20
2019-02-16T18:27:18.642Z,35.53
2019-02-16T18:30:14.504Z,29.77
2019-02-16T18:32:59.105Z,32.00
2019-02-16T18:35:45.819Z,33.13
2019-02-16T18:38:19.617Z,33.70
2019-02-16T18:41:15.141Z,39.30
2019-02-16T18:44:14.189Z,33.87
2019-02-16T18:46:59.107Z,32.60
2019-02-16T18:50:10.305Z,26.83
2019-02-16T18:52:48.229Z,28.17
2019-02-16T18:56:10.758Z,28.23
2019-02-16T18:59:06.847Z,32.10
2019-02-16T19:02:29.110Z,24.40
2019-02-16T19:05:15.816Z,22.50
2019-02-16T19:07:56.802Z,24.03
2019-02-16T19:10:42.424Z,22.47
2019-02-16T19:13:40.546Z,22.97
2019-02-16T19:16:41.144Z,37.43
2019-02-16T19:19:34.077Z,26.33
2019-02-16T19:22:23.543Z,24.33
2019-02-16T19:25:19.604Z,35.83
2019-02-16T19:28:14.367Z,37.37
2019-02-16T19:30:58.180Z,29.13
2019-02-16T19:33:34.748Z,35.07
2019-02-16T19:36:36.743Z,22.23
2019-02-16T19:39:27.298Z,45.07
2019-02-16T19:42:12.532Z,39.43
2019-02-16T19:45:09.366Z,40.70
2019-02-16T19:47:54.694Z,30.37
2019-02-16T19:50:56.746Z,34.13
2019-02-16T19:53:39.792Z,37.60
2019-02-16T19:56:30.353Z,42.77
2019-02-16T19:59:23.151Z,32.23
2019-02-16T20:02:10.706Z,37.03
2019-02-16T20:05:00.236Z,30.77
2019-02-16T20:07:48.224Z,27.30
2019-02-16T20:10:50.360Z,36.17
2019-02-16T20:14:12.958Z,28.37
2019-02-16T20:20:30.195Z,26.20
2019-02-16T20:23:19.991Z,27.83
2019-02-16T20:26:09.468Z,35.13
2019-02-16T20:29:00.814Z,30.50
2019-02-16T20:31:39.908Z,38.03
2019-02-16T20:34:13.848Z,39.37
2019-02-16T20:36:55.313Z,31.33
2019-02-16T20:39:35.286Z,28.07
2019-02-16T20:42:28.026Z,31.20
2019-02-16T20:45:04.310Z,34.87
2019-02-16T20:47:41.038Z,33.97
2019-02-16T20:50:26.516Z,35.03
2019-02-16T20:56:03.793Z,38.87
2019-02-16T20:58:49.119Z,34.47
2019-02-16T21:01:34.080Z,28.00
2019-02-16T21:04:26.327Z,30.33
2019-02-16T21:07:11.859Z,32.07
2019-02-16T21:10:07.778Z,34.40
2019-02-16T21:12:57.406Z,29.17
2019-02-16T21:15:32.069Z,41.50
2019-02-16T21:18:27.764Z,36.30
2019-02-16T21:21:12.959Z,29.53
2019-02-16T21:23:58.776Z,27.03
2019-02-16T21:26:44.463Z,35.60
2019-02-16T21:29:37.250Z,52.13
2019-02-16T21:32:19.660Z,34.63
2019-02-16T21:34:54.752Z,28.27
2019-02-16T21:37:41.431Z,35.53
2019-02-16T21:40:30.743Z,37.63
2019-02-16T21:43:14.575Z,38.23
2019-02-16T21:46:09.499Z,32.50
2019-02-16T21:48:41.855Z,32.77
2019-02-16T21:51:25.901Z,43.80
2019-02-16T21:54:21.465Z,39.83
2019-02-16T21:56:59.202Z,49.60
2019-02-16T21:59:45.878Z,44.40
2019-02-16T22:02:41.615Z,47.50
2019-02-16T22:05:36.148Z,50.43
2019-02-16T22:08:21.838Z,46.43
2019-02-16T22:11:08.524Z,44.37
2019-02-16T22:13:35.587Z,45.93
2019-02-16T22:16:02.678Z,47.13
2019-02-16T22:18:29.822Z,46.87
2019-02-16T22:20:56.893Z,36.47
2019-02-16T22:23:23.951Z,39.07
2019-02-16T22:25:51.054Z,47.40
2019-02-16T22:28:29.960Z,37.40
2019-02-16T22:31:11.798Z,37.63
2019-02-16T22:33:39.033Z,47.77
2019-02-16T22:36:06.110Z,38.27
2019-02-16T22:38:33.242Z,38.33
2019-02-16T22:41:00.368Z,51.20
2019-02-16T22:43:27.548Z,38.13
2019-02-16T22:45:54.711Z,35.87
2019-02-16T22:48:25.418Z,46.20
2019-02-16T22:50:52.618Z,37.57
2019-02-16T22:53:19.693Z,46.60
2019-02-16T22:55:46.831Z,42.30
2019-02-16T22:58:13.995Z,49.97
2019-02-16T23:00:45.911Z,53.40
2019-02-16T23:03:13.339Z,33.20
2019-02-16T23:05:40.560Z,40.10
2019-02-16T23:08:07.769Z,49.57
2019-02-16T23:10:34.790Z,53.40
2019-02-16T23:13:02.055Z,51.90
2019-02-16T23:15:29.127Z,46.90
2019-02-16T23:17:56.269Z,49.57
2019-02-16T23:20:23.655Z,59.67
2019-02-16T23:22:50.727Z,52.03
2019-02-16T23:25:18.151Z,50.27
2019-02-16T23:28:24.417Z,57.60
2019-02-16T23:30:51.657Z,61.37
2019-02-16T23:33:18.764Z,53.63
2019-02-16T23:36:29.922Z,47.00
2019-02-16T23:38:57.076Z,53.47
2019-02-16T23:41:24.210Z,56.00
2019-02-16T23:44:03.562Z,45.73
2019-02-16T23:46:30.618Z,48.43
2019-02-16T23:48:57.837Z,49.63
2019-02-16T23:51:28.227Z,43.73
2019-02-16T23:53:56.511Z,43.57
2019-02-16T23:56:23.650Z,40.43
2019-02-16T23:58:50.765Z,45.50
